KEBS

Details ICAO KEBS
Name WEBSTER CITY MUNI
Region United States
Timezone America/Chicago (UTC-5.0)
Plans Departing 2
Arriving 1
Stats Elevation 1,121 ft / 342 m (AMSL)
Location 42.436794° -93.868713°
Runways 2
Magnetic Variation 0.973° E
Sunrise 2017-05-26 10:45:43 UTC / 2017-05-26 05:45:43 Local
Sunset 2017-05-27 01:42:19 UTC / 2017-05-26 20:42:19 Local
Advertisement - Login to hide

Runways

ID Width Length Bearing (true) Bearing (mag) Surface Threshold Offset Overrun Length
05 90 ft / 27 m 2,705 ft / 824 m 47.58° 46.61° Grass 0 ft / 0 m 0 ft / 0 m
14 75 ft / 23 m 4,007 ft / 1,221 m 144.08° 143.11° Concrete 0 ft / 0 m 0 ft / 0 m
23 90 ft / 27 m 2,705 ft / 824 m 227.58° 226.61° Grass 0 ft / 0 m 0 ft / 0 m
32 75 ft / 23 m 4,007 ft / 1,221 m 324.08° 323.11° Concrete 0 ft / 0 m 0 ft / 0 m

Map

Weather


0- 5 10 15 20 25 30 35+ Temperature / ° C

Clouds and Precipitation
Forecast for 2017-05-27 00:00 UTC. Updated an hour ago

Ground ~20,000 ft ~40,000 ft Winds

METAR

KEBS 270015Z AUTO 34006KT 10SM FEW075 26/11 A2976 RMK AO2

TAF

Not found

Frequencies

Recorded 127.82 MHz AWOS 3
Unicom 122.80 MHz CTAF/UNICOM
Warning: Do not use this data for real-world aviation or navigation. No guarantee of current accuracy is given.